Time;durP1;ratioP1;P1;durP2;ratioP2;P2;SDS_P1;SDS_P2;PMS_P1;PMS_P2;Temp;Humidity;BMP_temperature;BMP_pressure;BME280_temperature;BME280_humidity;BME280_pressure;Samples;Min_cycle;Max_cycle;Signal;HPM_P1;HPM_P2
2023/05/04 00:02:25;;;;;;;2.75;1.40;;;12.50;95.80;;;;;;4969557;28;20047;-69
2023/05/04 00:04:51;;;;;;;3.40;1.55;;;12.30;95.80;;;;;;4972438;28;20035;-69
2023/05/04 00:07:17;;;;;;;3.05;1.23;;;12.30;96.50;;;;;;4968013;28;20019;-69
2023/05/04 00:09:43;;;;;;;1.60;0.90;;;12.20;96.10;;;;;;4973703;28;20031;-69
2023/05/04 00:12:10;;;;;;;2.58;1.50;;;12.20;96.00;;;;;;4942397;28;20038;-69
2023/05/04 00:14:36;;;;;;;1.80;1.00;;;12.10;96.30;;;;;;4973226;28;20070;-69
2023/05/04 00:17:05;;;;;;;3.30;1.48;;;12.20;96.50;;;;;;4964259;28;20422;-69
2023/05/04 00:19:33;;;;;;;1.85;0.90;;;12.20;96.60;;;;;;4957462;28;20034;-69
2023/05/04 00:22:00;;;;;;;2.00;0.80;;;12.00;96.90;;;;;;4964196;28;20043;-69
2023/05/04 00:24:26;;;;;;;1.83;0.93;;;12.00;97.10;;;;;;4973037;28;20106;-69
2023/05/04 00:26:52;;;;;;;2.63;1.08;;;12.00;97.30;;;;;;4964242;28;20067;-69
2023/05/04 00:29:18;;;;;;;1.33;0.90;;;11.90;97.50;;;;;;4974218;28;20501;-69
2023/05/04 00:31:43;;;;;;;5.60;1.30;;;11.90;97.70;;;;;;4956659;28;20034;-69
2023/05/04 00:34:09;;;;;;;2.13;1.00;;;11.80;97.60;;;;;;4974031;28;20399;-69
2023/05/04 00:36:35;;;;;;;1.27;0.85;;;11.80;97.50;;;;;;4964818;28;20113;-69
2023/05/04 00:39:01;;;;;;;2.63;1.00;;;11.70;97.70;;;;;;4973930;28;20026;-69
2023/05/04 00:41:26;;;;;;;1.58;1.23;;;11.60;97.50;;;;;;4964979;28;20081;-69
2023/05/04 00:43:52;;;;;;;2.63;1.30;;;11.50;97.60;;;;;;4973946;28;20026;-70
2023/05/04 00:46:18;;;;;;;1.17;0.75;;;11.40;98.20;;;;;;4956899;28;20106;-69
2023/05/04 00:48:48;;;;;;;2.53;1.15;;;11.50;98.00;;;;;;4974261;28;20113;-70
2023/05/04 00:51:15;;;;;;;2.78;1.42;;;11.50;98.00;;;;;;4964964;28;20051;-70
2023/05/04 00:53:41;;;;;;;2.40;0.80;;;11.50;98.20;;;;;;4972521;28;20083;-68
2023/05/04 00:56:08;;;;;;;1.50;0.80;;;11.40;98.20;;;;;;4957052;28;20051;-69
2023/05/04 00:58:34;;;;;;;3.20;1.05;;;11.40;98.60;;;;;;4974209;28;20038;-68
2023/05/04 01:01:01;;;;;;;3.70;1.00;;;11.30;98.70;;;;;;4964497;28;20046;-70
2023/05/04 01:03:27;;;;;;;4.47;1.35;;;11.20;99.10;;;;;;4972156;28;20034;-70
2023/05/04 01:06:23;;;;;;;4.53;1.15;;;11.20;99.20;;;;;;4950066;28;20027;-70
2023/05/04 01:09:02;;;;;;;1.80;1.05;;;11.20;99.50;;;;;;4943530;28;20514;-70
2023/05/04 01:11:41;;;;;;;2.83;1.30;;;11.00;99.90;;;;;;4957963;28;20045;-69
2023/05/04 01:14:08;;;;;;;4.20;1.80;;;10.70;99.90;;;;;;4972360;28;20031;-69
2023/05/04 01:16:35;;;;;;;4.53;1.10;;;10.60;99.90;;;;;;4961589;28;20394;-70
2023/05/04 01:19:02;;;;;;;2.90;0.95;;;10.70;99.90;;;;;;4973580;28;20048;-69
2023/05/04 01:21:29;;;;;;;2.33;1.35;;;10.80;99.90;;;;;;4962830;28;20570;-70
2023/05/04 01:23:55;;;;;;;8.13;1.40;;;10.90;99.90;;;;;;4965031;28;20444;-70
2023/05/04 01:26:33;;;;;;;5.75;0.90;;;10.90;99.90;;;;;;4958033;28;20019;-70
2023/05/04 01:29:18;;;;;;;1.80;1.20;;;10.80;99.90;;;;;;4956265;28;20446;-70
2023/05/04 01:31:45;;;;;;;3.25;1.38;;;10.70;99.90;;;;;;4964351;28;20034;-70
2023/05/04 01:34:12;;;;;;;3.17;1.40;;;10.80;99.90;;;;;;4972929;28;20119;-70
2023/05/04 01:36:39;;;;;;;3.25;1.23;;;10.70;99.90;;;;;;4963946;28;20110;-70
2023/05/04 01:39:05;;;;;;;2.95;1.02;;;10.60;99.90;;;;;;4972017;28;20134;-70
2023/05/04 01:41:31;;;;;;;3.47;1.40;;;10.50;99.90;;;;;;4960615;28;20117;-70
2023/05/04 01:43:57;;;;;;;2.65;1.17;;;10.50;99.90;;;;;;4955605;28;20106;-70
2023/05/04 01:46:23;;;;;;;3.67;1.08;;;10.50;99.90;;;;;;4962515;28;20031;-70
2023/05/04 01:48:49;;;;;;;2.70;1.00;;;10.50;99.90;;;;;;4972631;28;20030;-70
2023/05/04 01:51:14;;;;;;;5.13;1.50;;;10.50;99.90;;;;;;4939895;28;20113;-70
2023/05/04 01:53:40;;;;;;;2.72;1.30;;;10.40;99.90;;;;;;4972536;28;20039;-69
2023/05/04 01:56:07;;;;;;;3.92;1.30;;;10.40;99.90;;;;;;4963046;28;20130;-70
2023/05/04 01:58:33;;;;;;;2.78;1.23;;;10.50;99.90;;;;;;4972476;28;20142;-70
2023/05/04 02:00:58;;;;;;;2.72;1.30;;;10.50;99.90;;;;;;4963517;28;20570;-70
2023/05/04 02:03:25;;;;;;;4.10;1.45;;;10.40;99.90;;;;;;4970839;28;20027;-70
2023/05/04 02:05:51;;;;;;;2.83;1.17;;;10.40;99.90;;;;;;4963263;28;20094;-71
2023/05/04 02:08:17;;;;;;;2.42;1.35;;;10.30;99.90;;;;;;4972041;28;20058;-70
2023/05/04 02:10:43;;;;;;;2.13;1.10;;;10.20;99.90;;;;;;4959405;28;20126;-70
2023/05/04 02:13:09;;;;;;;1.83;0.95;;;10.20;99.90;;;;;;4972082;28;20094;-70
2023/05/04 02:15:35;;;;;;;3.08;1.52;;;10.10;99.90;;;;;;4962657;28;20497;-70
2023/05/04 02:18:01;;;;;;;3.72;1.40;;;10.00;99.90;;;;;;4940000;28;20369;-70
2023/05/04 02:20:27;;;;;;;7.80;1.35;;;10.00;99.90;;;;;;4945977;29;20066;-70
2023/05/04 02:22:52;;;;;;;9.43;1.55;;;10.00;99.90;;;;;;4964920;28;20034;-70
2023/05/04 02:25:18;;;;;;;3.65;2.00;;;9.90;99.90;;;;;;4961142;28;20023;-70
2023/05/04 02:27:44;;;;;;;3.97;1.83;;;9.90;99.90;;;;;;4964613;28;20027;-70
2023/05/04 02:30:11;;;;;;;2.55;1.60;;;9.90;99.90;;;;;;4981009;23;20027;-75
2023/05/04 02:32:36;;;;;;;2.25;1.55;;;9.90;99.90;;;;;;4975670;28;20046;-76
2023/05/04 02:35:02;;;;;;;3.13;1.58;;;9.90;99.90;;;;;;4979836;28;20030;-76
2023/05/04 02:37:28;;;;;;;2.83;1.40;;;9.90;99.90;;;;;;4995306;28;20042;-76
2023/05/04 02:39:54;;;;;;;2.95;1.83;;;9.90;99.90;;;;;;4990245;28;20041;-76
2023/05/04 02:42:19;;;;;;;3.35;1.90;;;9.90;99.90;;;;;;4985051;28;20027;-76
2023/05/04 02:44:45;;;;;;;3.40;1.90;;;9.90;99.90;;;;;;4991420;28;20042;-76
2023/05/04 02:47:11;;;;;;;5.82;1.98;;;9.80;99.90;;;;;;4984611;28;20030;-76
2023/05/04 02:49:37;;;;;;;3.20;1.88;;;9.80;99.90;;;;;;4991384;28;20085;-76
2023/05/04 02:52:02;;;;;;;2.20;1.33;;;9.80;99.90;;;;;;4977706;28;20069;-76
2023/05/04 02:54:28;;;;;;;4.50;1.80;;;9.70;99.90;;;;;;4991014;28;20026;-76
2023/05/04 02:56:54;;;;;;;3.72;2.15;;;9.50;99.90;;;;;;4984253;28;20030;-76
2023/05/04 02:59:20;;;;;;;5.40;2.08;;;9.50;99.90;;;;;;4990743;28;20038;-76
2023/05/04 03:01:45;;;;;;;3.35;1.98;;;9.50;99.90;;;;;;4984256;28;20037;-76
2023/05/04 03:04:11;;;;;;;3.75;1.88;;;9.50;99.90;;;;;;4962421;28;20145;-76
2023/05/04 03:06:37;;;;;;;2.78;1.50;;;9.60;99.90;;;;;;4970598;28;20098;-76
2023/05/04 03:09:03;;;;;;;4.45;1.90;;;9.60;99.90;;;;;;4990246;28;20046;-76
2023/05/04 03:11:29;;;;;;;2.22;1.23;;;9.50;99.90;;;;;;4983959;28;20033;-76
2023/05/04 03:13:54;;;;;;;4.55;2.05;;;9.50;99.90;;;;;;4989486;28;20034;-76
2023/05/04 03:16:20;;;;;;;3.50;2.05;;;9.50;99.90;;;;;;4984105;28;20429;-76
2023/05/04 03:18:46;;;;;;;6.70;1.67;;;9.50;99.90;;;;;;4990879;28;20049;-76
2023/05/04 03:21:12;;;;;;;4.20;2.40;;;9.50;99.90;;;;;;4967883;28;20128;-76
2023/05/04 03:23:38;;;;;;;8.50;2.05;;;9.40;99.90;;;;;;4990370;28;20559;-76
2023/05/04 03:26:04;;;;;;;6.60;1.35;;;9.40;99.90;;;;;;4983977;28;20050;-76
2023/05/04 03:28:30;;;;;;;4.38;1.55;;;9.40;99.90;;;;;;4990828;28;20041;-76
2023/05/04 03:30:55;;;;;;;5.38;1.88;;;9.30;99.90;;;;;;4983683;28;20482;-75
2023/05/04 03:33:21;;;;;;;6.53;1.67;;;9.30;99.90;;;;;;4990542;28;20077;-75
2023/05/04 03:35:47;;;;;;;4.63;1.23;;;9.40;99.90;;;;;;4983279;28;20030;-77
2023/05/04 03:38:13;;;;;;;5.88;1.73;;;9.30;99.90;;;;;;4985650;28;20085;-76
2023/05/04 03:40:38;;;;;;;3.42;1.90;;;9.20;99.90;;;;;;4983272;28;20035;-76
2023/05/04 03:43:04;;;;;;;4.18;2.15;;;9.30;99.90;;;;;;4990358;28;20033;-76
2023/05/04 03:45:30;;;;;;;5.43;2.45;;;9.30;99.90;;;;;;4980834;28;20039;-77
2023/05/04 03:47:56;;;;;;;4.70;2.28;;;9.30;99.90;;;;;;4987716;28;20101;-77
2023/05/04 03:50:22;;;;;;;3.28;1.60;;;9.30;99.90;;;;;;4985157;28;20066;-77
2023/05/04 03:52:48;;;;;;;4.55;2.53;;;9.30;99.90;;;;;;4987323;28;20102;-77
2023/05/04 03:55:14;;;;;;;4.68;2.22;;;9.30;99.90;;;;;;4944308;28;20038;-77
2023/05/04 03:57:40;;;;;;;6.63;2.65;;;9.30;99.90;;;;;;4978502;28;20041;-77
2023/05/04 04:00:07;;;;;;;2.97;1.88;;;9.30;99.90;;;;;;4976617;28;20479;-77
2023/05/04 04:02:33;;;;;;;3.85;2.65;;;9.40;99.90;;;;;;4985959;28;20030;-77
2023/05/04 04:04:59;;;;;;;3.10;1.95;;;9.50;99.90;;;;;;4970581;28;20038;-77
2023/05/04 04:07:25;;;;;;;4.80;2.08;;;9.40;99.90;;;;;;4985127;28;20113;-77
2023/05/04 04:09:54;;;;;;;9.93;2.50;;;9.40;99.90;;;;;;4991313;28;20034;-77
2023/05/04 04:12:20;;;;;;;4.80;2.05;;;9.50;99.90;;;;;;4987201;28;20038;-76
2023/05/04 04:14:47;;;;;;;3.25;1.75;;;9.40;99.90;;;;;;4993522;28;20037;-78
2023/05/04 04:17:13;;;;;;;5.20;2.53;;;9.50;99.90;;;;;;4985009;28;20486;-78
2023/05/04 04:19:39;;;;;;;3.47;2.13;;;9.50;99.90;;;;;;4990239;28;20085;-78
2023/05/04 04:22:05;;;;;;;3.97;1.58;;;9.60;99.90;;;;;;4986939;28;20060;-78
2023/05/04 04:24:31;;;;;;;4.53;1.73;;;9.60;99.90;;;;;;4984025;28;20447;-76
2023/05/04 04:26:56;;;;;;;4.47;1.88;;;9.60;99.90;;;;;;4983815;28;20398;-79
2023/05/04 04:29:22;;;;;;;4.70;2.13;;;9.60;99.90;;;;;;4994077;28;20054;-77
2023/05/04 04:31:48;;;;;;;3.70;1.85;;;9.60;99.90;;;;;;4986493;28;20380;-77
2023/05/04 04:34:14;;;;;;;4.28;2.25;;;9.50;99.90;;;;;;4992426;28;20068;-77
2023/05/04 04:36:39;;;;;;;4.45;1.92;;;9.50;99.90;;;;;;4987371;28;20030;-78
2023/05/04 04:39:05;;;;;;;4.68;2.08;;;9.50;99.90;;;;;;4993902;28;20034;-77
2023/05/04 04:41:31;;;;;;;7.18;2.22;;;9.60;99.90;;;;;;4986026;28;20034;-79
2023/05/04 04:43:57;;;;;;;6.05;2.95;;;9.60;99.90;;;;;;4993578;28;20034;-78
2023/05/04 04:46:23;;;;;;;7.88;2.17;;;9.60;99.90;;;;;;4987959;28;20030;-78
2023/05/04 04:48:49;;;;;;;4.07;2.08;;;9.70;99.90;;;;;;4993498;28;20034;-76
2023/05/04 04:51:15;;;;;;;2.45;1.67;;;9.70;99.90;;;;;;4988988;28;20041;-77
2023/05/04 04:53:41;;;;;;;3.28;1.98;;;9.70;99.90;;;;;;4975353;28;20035;-80
2023/05/04 04:56:08;;;;;;;7.47;1.95;;;9.80;99.90;;;;;;4977016;28;20049;-75
2023/05/04 04:58:34;;;;;;;4.00;1.50;;;9.80;99.90;;;;;;4993912;28;20029;-74
2023/05/04 05:01:03;;;;;;;5.65;2.47;;;9.90;99.90;;;;;;4986774;28;20038;-73
2023/05/04 05:03:29;;;;;;;2.75;1.67;;;10.00;99.90;;;;;;4992938;28;20034;-74
2023/05/04 05:05:54;;;;;;;4.00;2.30;;;10.00;99.90;;;;;;4983509;28;20046;-74
2023/05/04 05:08:21;;;;;;;5.43;2.75;;;10.10;99.90;;;;;;4993157;28;20046;-73
2023/05/04 05:10:47;;;;;;;6.15;2.40;;;10.10;99.90;;;;;;4984085;28;20035;-74
2023/05/04 05:13:12;;;;;;;5.72;2.35;;;10.20;99.90;;;;;;4992631;28;20037;-74
2023/05/04 05:15:38;;;;;;;3.28;1.85;;;10.30;99.90;;;;;;4986084;28;20030;-74
2023/05/04 05:18:04;;;;;;;3.33;2.03;;;10.40;99.90;;;;;;4991312;28;20111;-74
2023/05/04 05:20:30;;;;;;;5.72;2.17;;;10.30;99.90;;;;;;4974372;28;20038;-74
2023/05/04 05:22:56;;;;;;;3.50;2.15;;;10.40;99.90;;;;;;4989256;28;20033;-74
2023/05/04 05:25:22;;;;;;;3.13;2.30;;;10.40;99.90;;;;;;4974841;28;20035;-75
2023/05/04 05:27:48;;;;;;;5.90;2.47;;;10.30;99.90;;;;;;4989592;28;20034;-75
2023/05/04 05:30:14;;;;;;;4.50;2.47;;;10.40;99.90;;;;;;4989010;28;20034;-75
2023/05/04 05:32:40;;;;;;;3.60;1.90;;;10.40;99.90;;;;;;4988755;28;20041;-75
2023/05/04 05:35:08;;;;;;;5.68;2.60;;;10.40;99.90;;;;;;4990101;28;20117;-75
2023/05/04 05:37:34;;;;;;;8.82;2.72;;;10.40;99.90;;;;;;4987878;28;20019;-74
2023/05/04 05:39:59;;;;;;;3.78;1.65;;;10.40;99.90;;;;;;4991453;28;20056;-74
2023/05/04 05:42:27;;;;;;;4.40;1.92;;;10.30;99.90;;;;;;4984786;28;20048;-74
2023/05/04 05:44:53;;;;;;;3.50;1.90;;;10.30;99.90;;;;;;4992078;28;20034;-74
2023/05/04 05:47:19;;;;;;;7.35;2.03;;;10.40;99.90;;;;;;4984353;28;20053;-74
2023/05/04 05:49:44;;;;;;;6.25;2.38;;;10.50;99.90;;;;;;4992303;28;20532;-73
2023/05/04 05:52:10;;;;;;;9.35;2.90;;;10.50;99.90;;;;;;4985203;28;20038;-75
2023/05/04 05:54:36;;;;;;;4.78;1.98;;;10.60;99.90;;;;;;4981179;28;20497;-74
2023/05/04 05:57:05;;;;;;;7.22;2.83;;;10.60;99.90;;;;;;4976080;28;20156;-75
2023/05/04 05:59:31;;;;;;;5.20;2.15;;;10.70;99.90;;;;;;4974960;28;20406;-74
2023/05/04 06:01:56;;;;;;;3.50;1.85;;;10.70;99.90;;;;;;4975072;28;20042;-74
2023/05/04 06:04:22;;;;;;;9.77;2.33;;;10.80;99.90;;;;;;4965132;28;20058;-74
2023/05/04 06:06:48;;;;;;;2.35;1.63;;;10.90;99.90;;;;;;4975815;28;20038;-73
2023/05/04 06:09:13;;;;;;;3.38;2.08;;;11.00;99.90;;;;;;4991915;28;20026;-74
2023/05/04 06:11:39;;;;;;;3.28;1.90;;;11.10;99.90;;;;;;4984403;28;20069;-73
2023/05/04 06:14:05;;;;;;;6.45;3.65;;;11.20;99.90;;;;;;4991741;28;20069;-76
2023/05/04 06:16:31;;;;;;;5.57;2.30;;;11.30;99.90;;;;;;4985139;28;20056;-74
2023/05/04 06:18:57;;;;;;;5.40;2.13;;;11.50;99.90;;;;;;4990515;28;20030;-74
2023/05/04 06:21:23;;;;;;;5.78;2.38;;;11.60;99.90;;;;;;4983671;28;20022;-74
2023/05/04 06:23:49;;;;;;;3.53;2.40;;;11.60;99.90;;;;;;4987209;28;20030;-74
2023/05/04 06:26:14;;;;;;;5.85;1.85;;;11.70;99.90;;;;;;4975630;28;20549;-74
2023/05/04 06:28:40;;;;;;;4.38;1.95;;;11.70;99.90;;;;;;4991712;28;20194;-75
2023/05/04 06:31:06;;;;;;;4.30;2.25;;;11.80;99.90;;;;;;4984484;28;20026;-74
2023/05/04 06:33:32;;;;;;;3.15;1.85;;;11.90;99.90;;;;;;4990545;28;20034;-75
2023/05/04 06:35:57;;;;;;;4.00;1.95;;;11.90;99.90;;;;;;4984386;28;20043;-74
2023/05/04 06:38:23;;;;;;;5.13;2.67;;;12.00;99.90;;;;;;4979372;28;20026;-74
2023/05/04 06:40:49;;;;;;;5.78;1.90;;;12.10;99.90;;;;;;4984174;28;20479;-74
2023/05/04 06:43:15;;;;;;;6.13;2.75;;;12.20;99.90;;;;;;4989884;28;20034;-74
2023/05/04 06:45:43;;;;;;;8.68;2.28;;;12.30;99.90;;;;;;4984535;28;20581;-75
2023/05/04 06:48:08;;;;;;;10.80;3.97;;;12.50;99.90;;;;;;4975768;28;20486;-73
2023/05/04 06:50:35;;;;;;;5.82;1.85;;;12.50;99.90;;;;;;4985535;28;20114;-73
2023/05/04 06:53:09;;;;;;;6.72;1.98;;;12.60;99.90;;;;;;4990265;28;20698;-73
2023/05/04 06:55:37;;;;;;;3.42;1.70;;;12.70;99.90;;;;;;4972106;28;20505;-73
2023/05/04 06:58:03;;;;;;;5.53;2.15;;;12.80;99.90;;;;;;4990384;28;20105;-73
2023/05/04 07:00:30;;;;;;;6.90;2.42;;;13.00;99.90;;;;;;4986274;28;20038;-73
2023/05/04 07:02:56;;;;;;;12.00;2.63;;;13.10;99.90;;;;;;4989475;28;20031;-73
2023/05/04 07:05:22;;;;;;;3.28;1.95;;;13.20;99.90;;;;;;4987207;28;20039;-73
2023/05/04 07:07:49;;;;;;;3.90;1.80;;;13.40;99.90;;;;;;4987119;28;20072;-74
2023/05/04 07:10:16;;;;;;;3.95;2.10;;;13.60;99.90;;;;;;4987737;28;20030;-73
2023/05/04 07:12:42;;;;;;;3.50;1.65;;;13.60;99.90;;;;;;4987698;28;20137;-73
2023/05/04 07:15:09;;;;;;;3.97;1.90;;;13.70;99.90;;;;;;4969364;28;20019;-73
2023/05/04 07:17:38;;;;;;;4.18;1.92;;;13.80;99.90;;;;;;4986737;28;20038;-74
2023/05/04 07:20:05;;;;;;;6.13;2.08;;;13.90;99.90;;;;;;4988697;28;20514;-74
2023/05/04 07:22:32;;;;;;;7.20;2.17;;;14.00;99.90;;;;;;4986159;28;20088;-73
2023/05/04 07:25:02;;;;;;;13.30;2.88;;;14.10;99.90;;;;;;4975507;28;20081;-74
2023/05/04 07:27:27;;;;;;;4.15;2.30;;;14.10;99.90;;;;;;4985372;28;20037;-74
2023/05/04 07:29:54;;;;;;;4.32;2.20;;;14.20;99.90;;;;;;4990715;28;20022;-74
2023/05/04 07:32:20;;;;;;;3.25;1.77;;;14.30;99.90;;;;;;4983768;28;20039;-73
2023/05/04 07:34:46;;;;;;;4.00;2.10;;;14.40;99.90;;;;;;4990764;28;20037;-74
2023/05/04 07:37:12;;;;;;;4.38;2.00;;;14.60;99.90;;;;;;4983693;28;20049;-74
2023/05/04 07:39:38;;;;;;;8.40;3.13;;;14.80;99.90;;;;;;4990694;28;20382;-74
2023/05/04 07:42:06;;;;;;;6.13;2.80;;;14.90;99.90;;;;;;4983536;28;20045;-74
2023/05/04 07:44:31;;;;;;;5.78;2.70;;;15.00;99.90;;;;;;4990036;28;20061;-68
2023/05/04 07:46:58;;;;;;;11.07;3.63;;;15.10;99.90;;;;;;4987960;28;20084;-75
2023/05/04 07:49:25;;;;;;;8.27;2.95;;;15.30;99.90;;;;;;4994545;28;20038;-77
2023/05/04 07:51:51;;;;;;;6.63;3.47;;;15.40;99.90;;;;;;4987849;28;20044;-78
2023/05/04 07:54:17;;;;;;;6.93;2.58;;;15.60;99.90;;;;;;4985113;28;20510;-74
2023/05/04 07:56:43;;;;;;;6.82;3.22;;;15.70;99.90;;;;;;4982164;28;20038;-74
2023/05/04 07:59:09;;;;;;;5.20;3.00;;;15.80;99.90;;;;;;4993647;28;20105;-74
2023/05/04 08:01:35;;;;;;;4.18;2.22;;;15.90;99.90;;;;;;4983484;28;20038;-74
2023/05/04 08:04:01;;;;;;;7.85;2.90;;;15.90;99.90;;;;;;4973052;28;20406;-74
2023/05/04 08:06:26;;;;;;;7.05;2.38;;;16.10;99.90;;;;;;4972703;28;20034;-74
2023/05/04 08:08:52;;;;;;;3.85;2.20;;;16.20;99.90;;;;;;4988278;28;20042;-74
2023/05/04 08:11:18;;;;;;;11.07;3.40;;;16.40;99.90;;;;;;4987025;28;20062;-74
2023/05/04 08:13:46;;;;;;;8.18;3.22;;;16.60;99.90;;;;;;4993762;28;20478;-74
2023/05/04 08:16:12;;;;;;;3.33;1.95;;;16.80;99.90;;;;;;4985847;28;20509;-74
2023/05/04 08:18:38;;;;;;;5.57;2.70;;;17.00;99.90;;;;;;4994113;28;20101;-74
2023/05/04 08:21:04;;;;;;;9.45;3.05;;;17.10;99.90;;;;;;4986805;28;20037;-74
2023/05/04 08:23:32;;;;;;;4.80;2.33;;;17.20;99.90;;;;;;4992037;28;20509;-74
2023/05/04 08:26:02;;;;;;;4.57;2.35;;;17.20;99.20;;;;;;4975469;28;20038;-74
2023/05/04 08:28:29;;;;;;;6.25;3.28;;;17.30;99.50;;;;;;4992668;28;20442;-74
2023/05/04 08:30:56;;;;;;;13.18;3.08;;;17.50;99.40;;;;;;4995989;23;20059;-69
2023/05/04 08:33:22;;;;;;;11.15;3.38;;;17.70;99.10;;;;;;4971013;28;20118;-69
2023/05/04 08:35:48;;;;;;;5.40;2.95;;;17.80;99.40;;;;;;4966938;28;20043;-69
2023/05/04 08:38:14;;;;;;;11.80;2.85;;;18.00;98.30;;;;;;4973080;28;20035;-69
2023/05/04 08:40:42;;;;;;;4.65;1.98;;;17.90;98.00;;;;;;4967669;28;20396;-69
2023/05/04 08:43:08;;;;;;;4.07;2.20;;;18.00;97.90;;;;;;4956722;28;20023;-68
2023/05/04 08:45:41;;;;;;;2.97;2.03;;;18.20;97.40;;;;;;4968104;28;20059;-68
2023/05/04 08:48:08;;;;;;;10.00;2.97;;;18.00;96.90;;;;;;4972640;28;20015;-68
2023/05/04 08:50:36;;;;;;;3.22;2.17;;;18.10;97.20;;;;;;4967531;28;20676;-68
2023/05/04 08:53:06;;;;;;;3.50;1.85;;;18.10;97.20;;;;;;4971675;28;20122;-68
2023/05/04 08:55:38;;;;;;;6.35;2.28;;;18.20;97.10;;;;;;4953819;28;20031;-69
2023/05/04 08:58:09;;;;;;;4.13;1.88;;;18.30;96.70;;;;;;4971716;28;20031;-69
2023/05/04 09:00:36;;;;;;;4.03;1.63;;;18.50;96.00;;;;;;4967177;28;20094;-69
2023/05/04 09:03:04;;;;;;;5.22;1.38;;;18.60;95.00;;;;;;4971120;28;20062;-68
2023/05/04 09:05:31;;;;;;;3.03;1.83;;;18.80;94.80;;;;;;4969359;28;20174;-68
2023/05/04 09:07:57;;;;;;;2.83;1.65;;;19.00;95.40;;;;;;4971122;28;20027;-69
2023/05/04 09:10:24;;;;;;;3.20;1.80;;;19.10;94.90;;;;;;4969718;28;20403;-69
2023/05/04 09:12:53;;;;;;;2.90;1.42;;;19.00;94.20;;;;;;4953861;28;20109;-69
2023/05/04 09:15:20;;;;;;;2.88;1.70;;;19.10;94.10;;;;;;4970918;28;20498;-68
2023/05/04 09:18:04;;;;;;;3.47;1.77;;;19.30;93.90;;;;;;4967680;28;20165;-68
2023/05/04 09:20:41;;;;;;;4.80;2.35;;;19.30;93.70;;;;;;4968054;28;20097;-70
2023/05/04 09:23:08;;;;;;;2.42;1.50;;;19.50;93.70;;;;;;4972284;28;20797;-69
2023/05/04 09:25:49;;;;;;;4.65;1.45;;;19.60;93.50;;;;;;4952618;28;20126;-70
2023/05/04 09:28:15;;;;;;;3.42;1.85;;;19.60;92.90;;;;;;4959344;28;20089;-70
2023/05/04 09:30:42;;;;;;;4.22;1.98;;;19.60;92.60;;;;;;4964222;28;20459;-70
2023/05/04 09:33:09;;;;;;;6.10;1.88;;;19.70;92.50;;;;;;4964109;28;20031;-72
2023/05/04 09:35:40;;;;;;;2.88;1.70;;;20.00;92.50;;;;;;4967716;28;20396;-71
2023/05/04 09:38:06;;;;;;;3.75;1.58;;;20.20;91.70;;;;;;4972733;28;20022;-72
2023/05/04 09:40:39;;;;;;;5.38;1.65;;;20.10;91.50;;;;;;4966508;28;20426;-73
2023/05/04 09:43:09;;;;;;;3.65;1.73;;;20.30;91.20;;;;;;4971330;28;20031;-71
2023/05/04 09:45:46;;;;;;;2.40;1.38;;;20.30;91.00;;;;;;4967224;28;20403;-72
2023/05/04 09:48:20;;;;;;;2.53;1.25;;;20.30;91.30;;;;;;4958298;28;20655;-72
2023/05/04 09:50:59;;;;;;;2.33;1.35;;;20.30;91.00;;;;;;4965023;28;20055;-72
2023/05/04 09:53:27;;;;;;;4.15;1.60;;;20.20;90.50;;;;;;4961457;28;20021;-72
2023/05/04 09:56:10;;;;;;;3.70;1.67;;;20.40;90.70;;;;;;4933910;28;20042;-71
2023/05/04 09:58:36;;;;;;;1.95;1.23;;;20.40;90.50;;;;;;4971542;28;20027;-71
2023/05/04 10:01:03;;;;;;;1.88;1.08;;;20.60;91.30;;;;;;4957428;28;20692;-72
2023/05/04 10:03:30;;;;;;;3.78;1.67;;;20.80;90.00;;;;;;4971002;28;20046;-72
2023/05/04 10:06:04;;;;;;;1.33;0.90;;;21.00;89.20;;;;;;4963621;28;20039;-70
2023/05/04 10:08:31;;;;;;;2.03;1.30;;;21.10;88.90;;;;;;4971332;28;20042;-73
2023/05/04 10:10:57;;;;;;;3.63;1.48;;;21.20;89.60;;;;;;4934359;28;20038;-72
2023/05/04 10:13:24;;;;;;;2.58;1.30;;;21.40;88.80;;;;;;4972216;28;20094;-71
2023/05/04 10:16:20;;;;;;;5.38;1.20;;;21.20;88.20;;;;;;4964859;28;20031;-72
2023/05/04 10:19:22;;;;;;;2.63;1.38;;;21.60;89.80;;;;;;4971350;28;20031;-70
2023/05/04 10:22:07;;;;;;;3.22;1.20;;;21.60;87.70;;;;;;4964163;28;20398;-70
2023/05/04 10:24:52;;;;;;;2.83;1.67;;;21.40;87.80;;;;;;4960846;28;20508;-71
2023/05/04 10:27:40;;;;;;;3.80;1.67;;;21.60;87.80;;;;;;4964438;28;20035;-70
2023/05/04 10:30:06;;;;;;;2.78;1.55;;;21.50;86.70;;;;;;4972611;28;20038;-72
2023/05/04 10:32:38;;;;;;;1.70;1.10;;;21.90;88.80;;;;;;4963575;28;20435;-72
2023/05/04 10:35:08;;;;;;;2.35;1.25;;;21.80;86.00;;;;;;4970763;28;20092;-73
2023/05/04 10:37:36;;;;;;;;;;;21.60;85.90;;;;;;4968615;28;20105;-72
2023/05/04 10:40:07;;;;;;;2.83;1.20;;;21.50;86.80;;;;;;4972513;28;19917;-71
2023/05/04 10:42:43;;;;;;;3.80;1.48;;;21.60;88.80;;;;;;4965442;28;20034;-71
2023/05/04 10:45:09;;;;;;;3.55;1.80;;;21.80;85.10;;;;;;4933800;29;20028;-72
2023/05/04 10:47:39;;;;;;;2.17;1.42;;;21.50;84.90;;;;;;4963798;28;20030;-70
2023/05/04 10:50:14;;;;;;;4.30;1.88;;;21.50;85.50;;;;;;4970533;28;20118;-72
2023/05/04 10:52:52;;;;;;;3.53;1.50;;;21.70;87.40;;;;;;4965321;28;20061;-71
2023/05/04 10:55:20;;;;;;;5.47;1.70;;;22.00;88.70;;;;;;4947630;29;20024;-72
2023/05/04 10:57:56;;;;;;;4.05;1.92;;;21.90;87.00;;;;;;4966885;28;20517;-71
2023/05/04 11:00:34;;;;;;;3.15;1.75;;;22.50;87.60;;;;;;4969137;28;20042;-72
2023/05/04 11:03:04;;;;;;;5.20;1.85;;;22.20;84.80;;;;;;4968737;28;20213;-71
2023/05/04 11:05:45;;;;;;;5.75;1.88;;;22.00;84.30;;;;;;4966092;28;20089;-71
2023/05/04 11:08:17;;;;;;;1.88;0.95;;;22.20;84.50;;;;;;4956676;28;20161;-71
2023/05/04 11:10:46;;;;;;;4.00;1.85;;;22.20;87.30;;;;;;4963930;28;20028;-71
2023/05/04 11:13:12;;;;;;;1.77;1.20;;;22.50;86.50;;;;;;4970172;28;20111;-70
2023/05/04 11:15:50;;;;;;;2.15;1.13;;;22.50;85.40;;;;;;4964990;28;20126;-71
2023/05/04 11:18:29;;;;;;;3.42;1.42;;;22.60;85.70;;;;;;4963441;28;20027;-71
2023/05/04 11:20:56;;;;;;;2.58;1.70;;;22.50;84.40;;;;;;4965651;28;20511;-70
2023/05/04 11:23:22;;;;;;;3.03;1.35;;;22.30;82.70;;;;;;4974456;28;20039;-71
2023/05/04 11:25:48;;;;;;;4.88;1.73;;;22.20;83.90;;;;;;4952788;28;20086;-71
2023/05/04 11:28:14;;;;;;;2.97;1.73;;;22.40;84.60;;;;;;4975450;28;20022;-70
2023/05/04 11:30:42;;;;;;;6.03;1.63;;;22.80;83.70;;;;;;4967050;28;20554;-70
2023/05/04 11:33:14;;;;;;;2.63;1.25;;;22.60;85.50;;;;;;4959430;28;20474;-71
2023/05/04 11:35:42;;;;;;;3.95;1.90;;;23.00;82.60;;;;;;4968416;28;20546;-70
2023/05/04 11:38:09;;;;;;;3.17;1.60;;;22.90;83.00;;;;;;4959524;28;20429;-70
2023/05/04 11:40:39;;;;;;;1.80;1.20;;;23.00;82.40;;;;;;4952023;28;20031;-71
2023/05/04 11:43:09;;;;;;;6.53;1.63;;;22.90;83.00;;;;;;4974587;28;20498;-71
2023/05/04 11:45:38;;;;;;;3.85;1.70;;;23.00;82.10;;;;;;4967933;28;20507;-71
2023/05/04 11:48:04;;;;;;;2.33;1.17;;;22.90;81.90;;;;;;4967545;28;20063;-71
2023/05/04 11:50:33;;;;;;;13.32;3.55;;;23.00;78.90;;;;;;4953648;29;20031;-72
2023/05/04 11:53:08;;;;;;;10.70;2.83;;;23.20;80.10;;;;;;4971728;28;20027;-74
2023/05/04 11:55:36;;;;;;;3.90;2.17;;;23.50;81.20;;;;;;4950490;28;20054;-71
2023/05/04 11:58:10;;;;;;;3.05;1.40;;;23.60;81.20;;;;;;4956321;28;20030;-73
2023/05/04 12:00:48;;;;;;;1.83;1.17;;;23.20;79.90;;;;;;4951446;28;20046;-71
2023/05/04 12:03:16;;;;;;;8.52;1.58;;;23.10;82.10;;;;;;4954988;28;20039;-71
2023/05/04 12:05:50;;;;;;;7.55;1.70;;;23.10;81.00;;;;;;4950757;29;20032;-72
2023/05/04 12:08:29;;;;;;;3.90;1.60;;;23.60;80.20;;;;;;4966817;28;20034;-71
2023/05/04 12:11:20;;;;;;;2.40;1.27;;;23.90;79.00;;;;;;4967021;28;20137;-70
2023/05/04 12:14:03;;;;;;;8.63;2.00;;;23.50;81.10;;;;;;4965466;28;20027;-72
2023/05/04 12:16:32;;;;;;;5.72;1.88;;;24.00;80.60;;;;;;4957793;28;20671;-72
2023/05/04 12:19:04;;;;;;;2.92;1.65;;;23.90;81.10;;;;;;4957081;28;20085;-74
2023/05/04 12:21:30;;;;;;;4.00;2.28;;;23.80;79.30;;;;;;4966964;28;20049;-72
2023/05/04 12:23:56;;;;;;;2.70;1.30;;;24.10;80.00;;;;;;4967888;28;20451;-72
2023/05/04 12:26:22;;;;;;;15.40;1.83;;;24.30;78.40;;;;;;4957038;28;20443;-71
2023/05/04 12:28:48;;;;;;;4.85;1.83;;;24.80;77.40;;;;;;4971092;28;20034;-71
2023/05/04 12:31:14;;;;;;;2.40;1.42;;;24.80;77.50;;;;;;4972920;28;20039;-71
2023/05/04 12:33:40;;;;;;;3.05;1.83;;;24.80;77.20;;;;;;4971911;28;20065;-71
2023/05/04 12:36:07;;;;;;;5.97;1.45;;;24.70;78.40;;;;;;4974235;28;20054;-70
2023/05/04 12:38:33;;;;;;;1.85;1.15;;;24.60;77.60;;;;;;4970279;28;20544;-71
2023/05/04 12:41:02;;;;;;;4.57;1.67;;;24.60;76.60;;;;;;4971863;28;20109;-71
2023/05/04 12:43:29;;;;;;;4.47;1.20;;;24.50;74.70;;;;;;4969807;28;20042;-72
2023/05/04 12:45:56;;;;;;;2.42;1.45;;;24.90;77.90;;;;;;4972993;28;20117;-72
2023/05/04 12:48:21;;;;;;;7.03;2.05;;;25.30;75.70;;;;;;4970313;28;20031;-71
2023/05/04 12:50:50;;;;;;;3.17;1.50;;;25.20;76.10;;;;;;4973918;28;20039;-71
2023/05/04 12:53:17;;;;;;;3.60;1.42;;;25.20;76.60;;;;;;4969772;28;20130;-71